Weather reports worldwide

Advertisment
Logan Botanic Garden, United Kingdom (99193): temperature & dewpoint: 20.09.2018 04:00:00 - 26.09.2018 04:00:00 (BST)Logan Botanic Garden, United Kingdom (99193): temperature -20cm: 20.09.2018 04:00:00 - 26.09.2018 04:00:00 (BST)Logan Botanic Garden, United Kingdom (99193): precipitation: 20.09.2018 04:00:00 - 26.09.2018 04:00:00 (BST)
Date & Time tt [°C] td [°C] tt -20cm [°C] rr [mm]
26.09.2018 04:00:00 13,8 12,1 - 0,0
26.09.2018 03:00:00 13,7 11,7 - 0,0
26.09.2018 02:00:00 13,6 11,3 - 0,0
26.09.2018 01:00:00 13,8 11,0 - 0,0
26.09.2018 00:00:00 13,9 10,8 - 0,0
25.09.2018 23:00:00 13,9 10,7 - 0,0
25.09.2018 22:00:00 14,1 10,8 - 0,0
25.09.2018 21:00:00 14,1 11,3 - 0,0
25.09.2018 20:00:00 13,9 11,3 - 0,0
25.09.2018 19:00:00 13,6 10,7 - 0,0
25.09.2018 18:00:00 13,6 10,5 - 0,0
25.09.2018 17:00:00 13,7 10,3 - 0,0
25.09.2018 16:00:00 13,3 9,7 - 0,0
25.09.2018 15:00:00 13,1 9,1 - 0,0
25.09.2018 14:00:00 12,9 8,6 - 0,0
25.09.2018 13:00:00 12,7 7,9 - 0,0
25.09.2018 12:00:00 12,5 7,1 - 0,0
25.09.2018 11:00:00 13,2 7,0 - 0,0
25.09.2018 10:00:00 12,4 6,4 13,0 0,0
25.09.2018 09:00:00 12,3 7,5 - 0,0
25.09.2018 08:00:00 11,6 7,0 - 0,0
25.09.2018 07:00:00 11,2 7,4 - 0,0
25.09.2018 06:00:00 11,1 6,4 - 0,0
25.09.2018 05:00:00 11,2 6,3 - 0,0
25.09.2018 04:00:00 11,2 6,6 - 0,0
25.09.2018 03:00:00 11,2 6,0 - 0,0
25.09.2018 02:00:00 11,3 6,6 - 0,0
25.09.2018 01:00:00 10,8 6,9 - 0,0
25.09.2018 00:00:00 10,8 7,4 - 0,0
24.09.2018 23:00:00 10,6 7,0 - 0,0
24.09.2018 22:00:00 11,3 6,7 - 0,0
24.09.2018 21:00:00 12,0 6,8 - 0,0
24.09.2018 20:00:00 11,7 6,8 - 0,0
24.09.2018 19:00:00 12,2 7,1 - 0,0
24.09.2018 18:00:00 12,7 6,6 - 0,0
24.09.2018 17:00:00 13,6 7,1 - 0,0
24.09.2018 16:00:00 13,7 7,1 - 0,0
24.09.2018 15:00:00 13,7 7,9 - 0,0
24.09.2018 14:00:00 12,3 7,0 - 0,0
24.09.2018 13:00:00 13,1 7,0 - 0,0
24.09.2018 12:00:00 11,7 7,8 - 0,0
24.09.2018 11:00:00 11,1 7,3 - 0,0
24.09.2018 10:00:00 10,9 7,2 13,0 0,0
24.09.2018 09:00:00 10,1 6,3 - 0,0
24.09.2018 08:00:00 9,9 6,2 - 0,0
24.09.2018 07:00:00 9,2 6,3 - 0,0
24.09.2018 06:00:00 9,3 6,0 - 0,0
24.09.2018 05:00:00 9,3 6,3 - 0,0
24.09.2018 04:00:00 10,0 6,7 - 0,0
24.09.2018 03:00:00 9,6 6,3 - 0,0
24.09.2018 02:00:00 8,0 3,7 - 0,0
24.09.2018 01:00:00 8,6 4,1 - 0,0
24.09.2018 00:00:00 9,0 4,0 - 0,0
23.09.2018 23:00:00 9,1 4,1 - 0,0
23.09.2018 22:00:00 9,3 4,2 - 0,0
23.09.2018 21:00:00 9,0 4,7 - 0,0
23.09.2018 20:00:00 9,8 5,1 - 0,0
23.09.2018 19:00:00 10,2 5,2 - 0,0
23.09.2018 18:00:00 11,1 5,2 - 0,0
23.09.2018 17:00:00 12,1 5,6 - 0,0
23.09.2018 16:00:00 12,2 5,4 - 0,0
23.09.2018 15:00:00 12,0 6,3 - 0,0
23.09.2018 14:00:00 11,6 5,2 - 1,0
23.09.2018 13:00:00 10,7 5,9 - 0,0
23.09.2018 12:00:00 9,7 4,9 - 0,0
23.09.2018 11:00:00 10,6 5,4 - 0,0
23.09.2018 10:00:00 9,5 6,0 13,4 0,0
23.09.2018 09:00:00 9,1 7,0 - 0,4
23.09.2018 08:00:00 7,9 5,8 - 0,2
23.09.2018 07:00:00 7,9 6,4 - 2,8
23.09.2018 06:00:00 8,0 6,2 - 1,0
23.09.2018 05:00:00 7,9 6,1 - 1,0
23.09.2018 04:00:00 8,5 6,1 - 0,6
23.09.2018 03:00:00 8,4 6,2 - 0,4
23.09.2018 02:00:00 8,2 5,6 - 0,2
23.09.2018 01:00:00 7,9 4,4 - 0,0
23.09.2018 00:00:00 7,8 4,4 - 0,0
22.09.2018 23:00:00 8,7 4,5 - 0,0
22.09.2018 22:00:00 8,4 4,5 - 0,0
22.09.2018 21:00:00 9,4 4,3 - 0,0
22.09.2018 20:00:00 9,7 4,7 - 0,0
22.09.2018 19:00:00 10,1 4,9 - 0,0
22.09.2018 18:00:00 11,5 5,3 - 0,0
22.09.2018 17:00:00 12,8 4,9 - 0,0
22.09.2018 16:00:00 12,8 5,1 - 0,0
22.09.2018 15:00:00 12,7 5,6 - 0,0
22.09.2018 14:00:00 11,9 6,1 - 0,0
22.09.2018 13:00:00 12,0 6,8 - 0,0
22.09.2018 12:00:00 11,4 6,8 - 0,0
22.09.2018 11:00:00 11,2 6,7 - 0,0
22.09.2018 10:00:00 10,3 7,0 13,7 0,0
22.09.2018 09:00:00 9,9 7,0 - 0,0
22.09.2018 08:00:00 9,5 6,3 - 0,0
22.09.2018 07:00:00 9,2 6,5 - 0,0
22.09.2018 06:00:00 9,1 6,2 - 0,0
22.09.2018 05:00:00 9,1 5,8 - 0,0
22.09.2018 04:00:00 9,2 5,9 - 0,0
22.09.2018 03:00:00 9,0 6,0 - 0,0
22.09.2018 02:00:00 9,2 6,0 - 0,0
22.09.2018 01:00:00 9,8 6,0 - 0,0
22.09.2018 00:00:00 9,8 6,5 - 0,0
21.09.2018 23:00:00 10,3 5,3 - 0,0
21.09.2018 22:00:00 10,5 6,1 - 0,0
21.09.2018 21:00:00 10,7 6,3 - 0,0
21.09.2018 20:00:00 10,9 6,9 - 0,2
21.09.2018 19:00:00 11,0 8,0 - 0,4
21.09.2018 18:00:00 12,1 7,4 - 0,0
21.09.2018 17:00:00 13,3 7,0 - 0,0
21.09.2018 16:00:00 12,3 7,5 - 0,0
21.09.2018 15:00:00 13,0 7,6 - 0,0
21.09.2018 14:00:00 11,4 9,0 - 1,8
21.09.2018 13:00:00 12,2 7,6 - 0,0
21.09.2018 12:00:00 11,0 7,6 - 0,0
21.09.2018 11:00:00 9,2 6,6 - 0,0
21.09.2018 10:00:00 10,1 6,4 13,9 0,0
21.09.2018 09:00:00 9,1 5,9 - 0,0
21.09.2018 08:00:00 8,8 6,3 - 0,0
21.09.2018 07:00:00 8,8 6,4 - 0,0
21.09.2018 06:00:00 9,0 6,8 - 0,0
21.09.2018 05:00:00 9,1 5,9 - 0,0
21.09.2018 04:00:00 8,8 6,8 - 0,6
21.09.2018 03:00:00 8,8 6,9 - 0,0
21.09.2018 02:00:00 7,5 5,5 - 0,2
21.09.2018 01:00:00 7,3 5,8 - 0,6
21.09.2018 00:00:00 7,4 5,7 - 0,8
20.09.2018 23:00:00 7,4 5,5 - 0,4
20.09.2018 22:00:00 7,7 6,1 - 0,4
20.09.2018 21:00:00 7,8 6,2 - 0,6
20.09.2018 20:00:00 7,6 5,8 - 1,6
20.09.2018 19:00:00 9,7 6,1 - 0,6
20.09.2018 18:00:00 11,2 5,7 - 0,0
20.09.2018 17:00:00 12,0 6,4 - 0,0
20.09.2018 16:00:00 11,9 6,1 - 0,0
20.09.2018 15:00:00 11,8 6,2 - 0,0
20.09.2018 14:00:00 12,0 6,0 - 0,0
20.09.2018 13:00:00 12,0 6,6 - 0,0
20.09.2018 12:00:00 11,7 6,3 - 0,0
20.09.2018 11:00:00 11,7 7,0 - 0,0
20.09.2018 10:00:00 11,2 7,3 14,4 0,0
20.09.2018 09:00:00 11,0 7,2 - 0,0
20.09.2018 08:00:00 10,7 6,9 - 0,0
20.09.2018 07:00:00 10,3 6,9 - 0,0
20.09.2018 06:00:00 10,3 6,6 - 0,0
20.09.2018 05:00:00 10,4 7,0 - 0,0
20.09.2018 04:00:00 10,4 7,0 - 0,0

tt = temperature
td = dewpoint
tt -20cm = temperature -20cm
rr = precipitation

Next stations